Time;durP1;ratioP1;P1;durP2;ratioP2;P2;SDS_P1;SDS_P2;PMS_P1;PMS_P2;Temp;Humidity;BMP_temperature;BMP_pressure;BME280_temperature;BME280_humidity;BME280_pressure;Samples;Min_cycle;Max_cycle;Signal;HPM_P1;HPM_P2
2022/09/14 00:02:35;;;;;;;;;;;;;;;19.76;69.74;95491.78;10339576;28;96860;-59
2022/09/14 00:07:38;;;;;;;;;;;;;;;19.85;69.33;95491.50;10339089;28;96730;-58
2022/09/14 00:12:40;;;;;;;;;;;;;;;19.85;68.91;95487.00;10376748;28;96845;-59
2022/09/14 00:17:44;;;;;;;;;;;;;;;19.69;69.03;95485.75;10381127;28;96750;-58
2022/09/14 00:22:47;;;;;;;;;;;;;;;19.60;69.67;95468.56;10380065;28;96922;-58
2022/09/14 00:27:49;;;;;;;;;;;;;;;19.49;69.48;95466.66;10354223;28;96832;-58
2022/09/14 00:32:53;;;;;;;;;;;;;;;19.41;69.67;95470.41;10337472;28;96935;-59
2022/09/14 00:37:56;;;;;;;;;;;;;;;19.43;70.05;95455.09;10338385;28;97007;-59
2022/09/14 00:42:58;;;;;;;;;;;;;;;19.46;69.89;95449.38;10420282;28;96802;-59
2022/09/14 00:48:03;;;;;;;;;;;;;;;19.56;69.33;95425.00;10421425;27;96848;-59
2022/09/14 00:53:06;;;;;;;;;;;;;;;19.60;68.89;95434.91;10421014;28;97173;-58
2022/09/14 00:58:08;;;;;;;;;;;;;;;19.67;68.44;95431.38;10390534;27;97461;-58
2022/09/14 01:03:12;;;;;;;;;;;;;;;19.57;68.77;95432.72;10378887;28;97403;-58
2022/09/14 01:08:27;;;;;;;;;;;;;;;19.38;69.20;95441.72;10379717;28;96944;-58
2022/09/14 01:13:34;;;;;;;;;;;;;;;19.19;69.24;95452.34;10378475;28;97545;-59
2022/09/14 01:18:41;;;;;;;;;;;;;;;19.10;69.58;95458.94;10377915;28;96708;-58
2022/09/14 01:23:48;;;;;;;;;;;;;;;19.05;69.97;95458.78;10402933;28;97038;-58
2022/09/14 01:28:55;;;;;;;;;;;;;;;18.94;69.92;95444.44;10382113;28;96843;-59
2022/09/14 01:34:15;;;;;;;;;;;;;;;18.91;69.55;95446.72;10378182;28;97538;-60
2022/09/14 01:39:20;;;;;;;;;;;;;;;18.90;69.52;95442.47;10378015;28;96809;-58
2022/09/14 01:44:27;;;;;;;;;;;;;;;18.88;69.22;95446.16;10403420;28;96794;-58
2022/09/14 01:49:32;;;;;;;;;;;;;;;18.86;69.08;95445.56;10335086;28;96934;-59
2022/09/14 01:54:39;;;;;;;;;;;;;;;18.83;69.33;95442.50;10335943;28;96769;-58
2022/09/14 01:59:44;;;;;;;;;;;;;;;18.84;68.43;95436.19;10368631;28;97373;-59
2022/09/14 02:04:48;;;;;;;;;;;;;;;18.87;69.45;95438.44;10376530;28;96689;-59
2022/09/14 02:09:52;;;;;;;;;;;;;;;18.86;69.04;95448.22;10376542;28;96910;-58
2022/09/14 02:14:56;;;;;;;;;;;;;;;18.83;69.59;95448.59;10370013;28;96845;-59
2022/09/14 02:20:00;;;;;;;;;;;;;;;18.82;69.36;95452.28;10334762;28;97376;-59
2022/09/14 02:25:03;;;;;;;;;;;;;;;18.74;69.46;95452.56;10335304;28;96810;-58
2022/09/14 02:30:08;;;;;;;;;;;;;;;18.77;69.33;95456.59;10334566;28;96692;-60
2022/09/14 02:35:15;;;;;;;;;;;;;;;18.84;69.35;95460.00;10334882;28;97179;-58
2022/09/14 02:40:22;;;;;;;;;;;;;;;18.82;68.69;95446.97;10334858;28;96788;-58
2022/09/14 02:45:31;;;;;;;;;;;;;;;18.76;68.94;95420.59;10342263;28;96751;-59
2022/09/14 02:50:36;;;;;;;;;;;;;;;18.56;70.42;95410.22;10375690;28;96786;-58
2022/09/14 02:55:42;;;;;;;;;;;;;;;18.46;70.70;95400.94;10404338;28;96929;-58
2022/09/14 03:00:46;;;;;;;;;;;;;;;18.45;70.78;95394.03;10409012;27;96784;-58
2022/09/14 03:05:49;;;;;;;;;;;;;;;18.63;69.68;95389.78;10393236;28;96772;-59
2022/09/14 03:10:51;;;;;;;;;;;;;;;18.60;69.75;95382.28;10374379;28;96782;-59
2022/09/14 03:15:55;;;;;;;;;;;;;;;18.58;70.02;95397.56;10362528;28;96855;-58
2022/09/14 03:21:01;;;;;;;;;;;;;;;18.55;70.46;95398.81;10372416;28;97120;-58
2022/09/14 03:26:07;;;;;;;;;;;;;;;18.53;70.91;95395.56;10374610;28;96755;-58
2022/09/14 03:31:11;;;;;;;;;;;;;;;18.46;70.44;95390.38;10374161;28;96782;-58
2022/09/14 03:36:15;;;;;;;;;;;;;;;18.48;70.58;95401.53;10374462;28;96917;-59
2022/09/14 03:41:18;;;;;;;;;;;;;;;18.47;70.63;95407.03;10375358;28;96936;-58
2022/09/14 03:46:24;;;;;;;;;;;;;;;18.53;70.50;95402.69;10354379;28;97000;-58
2022/09/14 03:51:27;;;;;;;;;;;;;;;18.53;70.78;95400.06;10332423;28;96832;-58
2022/09/14 03:56:29;;;;;;;;;;;;;;;18.54;70.74;95394.56;10331451;28;97200;-60
2022/09/14 04:01:33;;;;;;;;;;;;;;;18.44;70.66;95387.09;10331700;28;96766;-59
2022/09/14 04:06:36;;;;;;;;;;;;;;;18.42;70.61;95378.59;10332466;28;96908;-59
2022/09/14 04:11:38;;;;;;;;;;;;;;;18.41;71.50;95365.56;10361057;28;96754;-58
2022/09/14 04:16:43;;;;;;;;;;;;;;;18.47;70.53;95378.75;10349427;28;96789;-59
2022/09/14 04:21:46;;;;;;;;;;;;;;;18.47;70.58;95385.88;10331578;28;97267;-59
2022/09/14 04:26:48;;;;;;;;;;;;;;;18.44;70.45;95399.53;10331769;28;96708;-59
2022/09/14 04:31:52;;;;;;;;;;;;;;;18.41;71.26;95392.03;10337237;28;97196;-58
2022/09/14 04:36:55;;;;;;;;;;;;;;;18.46;71.98;95402.75;10338811;28;96815;-58
2022/09/14 04:41:57;;;;;;;;;;;;;;;18.54;71.44;95404.34;10338163;28;96788;-58
2022/09/14 04:47:01;;;;;;;;;;;;;;;18.67;70.16;95406.81;10363085;28;96795;-59
2022/09/14 04:52:04;;;;;;;;;;;;;;;18.85;71.73;95412.16;10379195;28;96777;-59
2022/09/14 04:57:06;;;;;;;;;;;;;;;19.05;71.20;95417.28;10391223;28;97196;-58
2022/09/14 05:02:10;;;;;;;;;;;;;;;19.15;71.63;95429.97;10400974;28;96758;-58
2022/09/14 05:07:13;;;;;;;;;;;;;;;19.24;71.07;95426.00;10420675;28;96768;-59
2022/09/14 05:12:16;;;;;;;;;;;;;;;19.32;70.97;95389.66;10384388;27;96771;-59
2022/09/14 05:17:20;;;;;;;;;;;;;;;19.30;71.32;95408.41;10347371;28;96877;-58
2022/09/14 05:22:22;;;;;;;;;;;;;;;19.18;71.59;95416.28;10338221;28;96708;-58
2022/09/14 05:27:25;;;;;;;;;;;;;;;19.17;72.08;95398.78;10336830;28;96681;-58
2022/09/14 05:32:29;;;;;;;;;;;;;;;19.14;71.51;95396.59;10378494;28;97088;-58
2022/09/14 05:37:31;;;;;;;;;;;;;;;19.05;71.13;95397.91;10418767;27;96965;-59
2022/09/14 05:42:34;;;;;;;;;;;;;;;18.99;71.74;95409.41;10382976;28;97041;-58
2022/09/14 05:47:38;;;;;;;;;;;;;;;18.87;72.03;95438.44;10392577;28;96979;-60
2022/09/14 05:52:40;;;;;;;;;;;;;;;18.92;72.02;95440.44;10374049;28;96682;-59
2022/09/14 05:57:43;;;;;;;;;;;;;;;18.93;71.57;95440.19;10376692;28;96782;-58
2022/09/14 06:02:48;;;;;;;;;;;;;;;19.02;71.89;95435.44;10376877;28;96889;-59
2022/09/14 06:07:51;;;;;;;;;;;;;;;19.06;72.01;95453.28;10392617;28;97839;-58
2022/09/14 06:12:54;;;;;;;;;;;;;;;19.11;71.71;95460.56;10378613;28;96810;-60
2022/09/14 06:17:58;;;;;;;;;;;;;;;19.07;71.58;95456.72;10393749;28;96779;-58
2022/09/14 06:23:01;;;;;;;;;;;;;;;18.88;72.47;95466.50;10386517;28;96845;-58
2022/09/14 06:28:03;;;;;;;;;;;;;;;18.86;73.05;95495.00;10333363;28;96895;-59
2022/09/14 06:33:07;;;;;;;;;;;;;;;18.83;73.31;95514.75;10343798;28;96835;-58
2022/09/14 06:38:10;;;;;;;;;;;;;;;18.76;73.79;95503.44;10375142;28;96718;-58
2022/09/14 06:43:12;;;;;;;;;;;;;;;18.66;74.15;95521.63;10375674;28;97041;-58
2022/09/14 06:48:16;;;;;;;;;;;;;;;18.52;75.00;95523.56;10337107;28;96943;-59
2022/09/14 06:53:19;;;;;;;;;;;;;;;18.29;76.49;95505.59;10332795;28;96876;-58
2022/09/14 06:58:21;;;;;;;;;;;;;;;18.06;76.88;95519.38;10333934;28;96708;-59
2022/09/14 07:03:25;;;;;;;;;;;;;;;18.07;76.78;95528.94;10334430;28;96834;-59
2022/09/14 07:08:28;;;;;;;;;;;;;;;18.20;76.91;95530.69;10335872;28;98021;-58
2022/09/14 07:13:31;;;;;;;;;;;;;;;18.32;75.85;95536.91;10373356;28;96894;-59
2022/09/14 07:18:35;;;;;;;;;;;;;;;18.46;75.33;95533.19;10332110;28;97047;-59
2022/09/14 07:23:39;;;;;;;;;;;;;;;18.59;75.40;95537.53;10332885;28;97492;-58
2022/09/14 07:28:43;;;;;;;;;;;;;;;18.64;74.98;95528.97;10332693;28;96642;-59
2022/09/14 07:33:47;;;;;;;;;;;;;;;18.69;75.31;95534.44;10332994;28;96776;-57
2022/09/14 07:38:49;;;;;;;;;;;;;;;18.84;74.81;95540.19;10332554;28;96851;-58
2022/09/14 07:43:58;;;;;;;;;;;;;;;18.96;74.69;95548.25;10336082;28;96785;-58
2022/09/14 07:49:03;;;;;;;;;;;;;;;19.05;74.79;95556.72;10373483;28;96935;-58
2022/09/14 07:54:07;;;;;;;;;;;;;;;19.14;74.80;95566.03;10374702;28;96704;-58
2022/09/14 07:59:11;;;;;;;;;;;;;;;19.25;74.76;95549.41;10374151;28;96713;-58
2022/09/14 08:04:35;;;;;;;;;;;;;;;19.39;73.70;95528.09;10375783;28;96772;-58
2022/09/14 08:09:38;;;;;;;;;;;;;;;19.43;73.81;95521.31;10379557;28;96783;-58
2022/09/14 08:14:41;;;;;;;;;;;;;;;19.47;74.78;95521.69;10368330;28;97145;-59
2022/09/14 08:19:45;;;;;;;;;;;;;;;19.56;74.27;95520.38;10339020;28;96661;-59
2022/09/14 08:24:47;;;;;;;;;;;;;;;19.63;74.78;95526.41;10339381;28;97180;-59
2022/09/14 08:29:50;;;;;;;;;;;;;;;19.73;74.43;95510.78;10338815;28;97045;-60
2022/09/14 08:34:54;;;;;;;;;;;;;;;19.80;74.36;95505.38;10338460;28;97660;-58
2022/09/14 08:39:56;;;;;;;;;;;;;;;19.93;74.05;95504.47;10338563;28;96714;-59
2022/09/14 08:45:01;;;;;;;;;;;;;;;20.02;74.01;95497.00;10353763;28;96722;-58
2022/09/14 08:50:16;;;;;;;;;;;;;;;20.19;73.61;95492.66;10378186;28;96775;-59
2022/09/14 08:55:22;;;;;;;;;;;;;;;20.16;73.80;95504.53;10338586;28;96761;-58
2022/09/14 09:00:29;;;;;;;;;;;;;;;20.24;74.12;95499.97;10337030;28;96688;-59
2022/09/14 09:05:37;;;;;;;;;;;;;;;20.40;73.53;95503.78;10337023;28;96814;-59
2022/09/14 09:10:40;;;;;;;;;;;;;;;20.35;73.82;95492.00;10358517;28;96818;-58
2022/09/14 09:15:45;;;;;;;;;;;;;;;20.29;74.32;95481.53;10371372;28;100659;-58
2022/09/14 09:20:51;;;;;;;;;;;;;;;20.50;73.93;95474.88;10378399;28;96806;-58
2022/09/14 09:25:58;;;;;;;;;;;;;;;20.91;72.92;95458.06;10378899;28;96840;-59
2022/09/14 09:31:03;;;;;;;;;;;;;;;21.37;72.23;95466.19;10378165;28;97137;-59
2022/09/14 09:36:08;;;;;;;;;;;;;;;21.54;71.66;95465.47;10378769;28;96693;-58
2022/09/14 09:41:13;;;;;;;;;;;;;;;21.86;71.49;95447.22;10378382;28;96791;-58
2022/09/14 09:46:15;;;;;;;;;;;;;;;22.25;70.43;95424.25;10352544;28;97670;-59
2022/09/14 09:51:27;;;;;;;;;;;;;;;22.58;70.24;95398.69;10335415;28;97036;-59
2022/09/14 09:56:32;;;;;;;;;;;;;;;22.66;70.28;95410.78;10336215;28;96888;-58
2022/09/14 10:01:35;;;;;;;;;;;;;;;22.69;69.76;95407.63;10335825;28;96816;-59
2022/09/14 10:06:43;;;;;;;;;;;;;;;22.45;70.34;95406.97;10335590;28;96669;-58
2022/09/14 10:11:46;;;;;;;;;;;;;;;22.21;70.92;95404.50;10365674;28;96818;-59
2022/09/14 10:16:49;;;;;;;;;;;;;;;22.15;70.59;95394.81;10347307;28;96877;-58
2022/09/14 10:22:04;;;;;;;;;;;;;;;22.29;70.64;95399.81;10335573;28;97115;-58
2022/09/14 10:27:22;;;;;;;;;;;;;;;22.50;69.72;95393.78;10335649;28;96640;-59
2022/09/14 10:32:25;;;;;;;;;;;;;;;22.57;69.89;95389.09;10334385;28;96933;-59
2022/09/14 10:37:32;;;;;;;;;;;;;;;22.61;69.04;95382.25;10334987;28;97166;-59
2022/09/14 10:42:39;;;;;;;;;;;;;;;22.57;68.96;95383.75;10333268;28;96786;-58
2022/09/14 10:48:06;;;;;;;;;;;;;;;22.66;69.15;95375.38;10372671;28;96737;-58
2022/09/14 10:53:20;;;;;;;;;;;;;;;22.65;69.13;95379.06;10375472;28;96714;-58
2022/09/14 10:58:30;;;;;;;;;;;;;;;22.76;68.84;95380.84;10375528;28;96951;-58
2022/09/14 11:03:42;;;;;;;;;;;;;;;22.58;68.66;95385.38;10375717;28;97897;-59
2022/09/14 11:08:53;;;;;;;;;;;;;;;22.32;68.83;95365.56;10375032;28;96769;-59
2022/09/14 11:14:03;;;;;;;;;;;;;;;22.36;68.75;95361.34;10367490;28;96783;-59
2022/09/14 11:19:12;;;;;;;;;;;;;;;22.55;68.07;95353.94;10334192;28;96664;-58
2022/09/14 11:24:19;;;;;;;;;;;;;;;22.53;67.70;95361.34;10333431;28;97527;-58
2022/09/14 11:29:25;;;;;;;;;;;;;;;22.61;67.78;95363.63;10332892;28;96831;-58
2022/09/14 11:34:29;;;;;;;;;;;;;;;22.67;67.37;95355.69;10332684;28;96722;-59
2022/09/14 11:39:36;;;;;;;;;;;;;;;22.81;66.82;95362.28;10332545;28;97192;-59
2022/09/14 11:44:39;;;;;;;;;;;;;;;23.02;66.11;95360.66;10347587;28;97349;-58
2022/09/14 11:49:49;;;;;;;;;;;;;;;23.08;65.83;95372.19;10373969;28;96690;-58
2022/09/14 11:54:53;;;;;;;;;;;;;;;23.04;66.04;95381.72;10373870;28;97083;-58
2022/09/14 11:59:57;;;;;;;;;;;;;;;22.89;66.01;95375.16;10373927;28;96790;-59
2022/09/14 12:05:18;;;;;;;;;;;;;;;22.84;65.80;95383.09;10373442;28;96738;-59
2022/09/14 12:10:22;;;;;;;;;;;;;;;22.99;64.68;95385.97;10374000;28;96773;-58
2022/09/14 12:15:33;;;;;;;;;;;;;;;23.29;64.21;95378.59;10351243;28;96868;-58
2022/09/14 12:20:41;;;;;;;;;;;;;;;23.54;63.58;95386.06;10332075;28;96802;-59
2022/09/14 12:25:57;;;;;;;;;;;;;;;23.71;63.24;95376.13;10330399;28;96682;-59
2022/09/14 12:31:12;;;;;;;;;;;;;;;23.75;62.81;95369.22;10331884;28;96866;-58
2022/09/14 12:36:29;;;;;;;;;;;;;;;23.51;62.54;95370.56;10331866;28;96797;-58
2022/09/14 12:41:50;;;;;;;;;;;;;;;23.45;62.02;95355.59;10331298;28;97510;-59
2022/09/14 12:46:55;;;;;;;;;;;;;;;23.22;60.79;95345.97;10366888;28;96947;-58
2022/09/14 12:52:01;;;;;;;;;;;;;;;23.22;60.87;95337.97;10374706;28;96954;-58
2022/09/14 12:57:09;;;;;;;;;;;;;;;23.35;60.42;95325.09;10379370;28;96782;-59
2022/09/14 13:02:30;;;;;;;;;;;;;;;23.43;60.46;95320.38;10380125;28;96880;-58
2022/09/14 13:07:36;;;;;;;;;;;;;;;23.35;60.15;95314.44;10379162;28;96781;-63
2022/09/14 13:12:41;;;;;;;;;;;;;;;23.27;60.04;95304.25;10377451;28;96782;-58
2022/09/14 13:17:55;;;;;;;;;;;;;;;23.34;59.80;95296.03;10336456;28;96749;-58
2022/09/14 13:22:59;;;;;;;;;;;;;;;23.40;59.73;95276.38;10337119;28;97153;-58
2022/09/14 13:28:03;;;;;;;;;;;;;;;23.52;59.46;95270.91;10337559;28;96895;-58
2022/09/14 13:33:06;;;;;;;;;;;;;;;23.61;58.90;95261.38;10337257;28;96895;-59
2022/09/14 13:38:15;;;;;;;;;;;;;;;23.86;58.48;95243.97;10337019;28;96899;-59
2022/09/14 13:43:18;;;;;;;;;;;;;;;24.05;57.73;95247.03;10344679;28;96869;-58
2022/09/14 13:48:21;;;;;;;;;;;;;;;24.03;57.63;95249.16;10377960;28;96796;-58
2022/09/14 13:53:39;;;;;;;;;;;;;;;24.12;57.21;95247.63;10377845;28;96724;-59
2022/09/14 13:58:41;;;;;;;;;;;;;;;24.32;56.88;95252.31;10377474;28;96794;-59
2022/09/14 14:03:47;;;;;;;;;;;;;;;24.63;56.35;95255.91;10377248;28;96881;-58
2022/09/14 14:09:02;;;;;;;;;;;;;;;24.80;56.09;95258.41;10375840;28;97116;-58
2022/09/14 14:14:05;;;;;;;;;;;;;;;;;;10361969;28;96867;-59
2022/09/14 14:19:22;;;;;;;;;;;;;;;25.08;55.51;95244.88;10334797;28;119253;-58
2022/09/14 14:24:28;;;;;;;;;;;;;;;25.24;55.48;95241.97;10334910;28;96847;-58
2022/09/14 14:29:30;;;;;;;;;;;;;;;25.35;54.84;95236.63;10335228;28;96832;-58
2022/09/14 14:34:33;;;;;;;;;;;;;;;25.28;54.81;95220.06;10335106;28;96973;-63
2022/09/14 14:39:37;;;;;;;;;;;;;;;25.31;54.98;95224.88;10335083;28;96870;-60
2022/09/14 14:44:40;;;;;;;;;;;;;;;25.12;54.98;95211.22;10354422;28;96825;-59
2022/09/14 14:49:43;;;;;;;;;;;;;;;24.96;55.00;95207.72;10375776;28;96754;-59
2022/09/14 14:54:47;;;;;;;;;;;;;;;24.65;55.12;95212.94;10375749;28;96703;-59
2022/09/14 14:59:51;;;;;;;;;;;;;;;24.50;55.05;95209.16;10374618;28;97027;-58
2022/09/14 15:04:54;;;;;;;;;;;;;;;24.48;55.10;95203.25;10375401;28;97269;-59
2022/09/14 15:09:58;;;;;;;;;;;;;;;24.57;54.94;95181.41;10375220;28;98044;-58
2022/09/14 15:15:01;;;;;;;;;;;;;;;24.78;54.54;95174.25;10349120;28;97162;-59
2022/09/14 15:20:04;;;;;;;;;;;;;;;24.85;54.87;95174.81;10333372;28;96840;-59
2022/09/14 15:25:09;;;;;;;;;;;;;;;24.68;54.74;95175.03;10333762;28;96669;-59
2022/09/14 15:30:12;;;;;;;;;;;;;;;24.42;54.86;95182.94;10333252;28;96814;-58
2022/09/14 15:35:15;;;;;;;;;;;;;;;24.28;55.09;95192.50;10333525;28;96827;-58
2022/09/14 15:40:19;;;;;;;;;;;;;;;24.07;55.27;95195.06;10332810;28;97955;-58
2022/09/14 15:45:21;;;;;;;;;;;;;;;23.84;55.52;95193.53;10359591;28;96799;-58
2022/09/14 15:50:24;;;;;;;;;;;;;;;23.64;55.76;95210.22;10373080;28;96770;-59
2022/09/14 15:55:28;;;;;;;;;;;;;;;23.49;56.17;95199.44;10373784;28;96754;-60
2022/09/14 16:00:31;;;;;;;;;;;;;;;23.41;56.21;95200.72;10373744;28;96738;-59
2022/09/14 16:05:37;;;;;;;;;;;;;;;23.37;56.11;95200.41;10373625;28;97081;-58
2022/09/14 16:10:41;;;;;;;;;;;;;;;23.29;56.00;95205.38;10369172;28;96882;-59
2022/09/14 16:15:43;;;;;;;;;;;;;;;23.16;56.48;95198.59;10367521;28;99410;-58
2022/09/14 16:20:46;;;;;;;;;;;;;;;23.08;56.33;95193.72;10382065;27;97101;-58
2022/09/14 16:25:50;;;;;;;;;;;;;;;22.94;56.45;95202.13;10375898;28;96773;-58
2022/09/14 16:30:52;;;;;;;;;;;;;;;22.87;56.45;95195.38;10380002;28;97098;-58
2022/09/14 16:36:01;;;;;;;;;;;;;;;22.85;56.76;95208.13;10380007;28;96762;-59
2022/09/14 16:41:05;;;;;;;;;;;;;;;22.80;56.32;95206.22;10342215;28;97111;-58
2022/09/14 16:46:09;;;;;;;;;;;;;;;22.74;56.32;95196.59;10337411;28;97466;-61
2022/09/14 16:51:13;;;;;;;;;;;;;;;22.65;56.77;95192.72;10340873;28;97875;-58
2022/09/14 16:56:18;;;;;;;;;;;;;;;22.48;57.01;95204.28;10358124;28;98202;-59
2022/09/14 17:01:22;;;;;;;;;;;;;;;22.34;57.44;95206.47;10356594;28;96813;-58
2022/09/14 17:06:26;;;;;;;;;;;;;;;22.24;57.04;95203.69;10349470;28;96792;-59
2022/09/14 17:11:31;;;;;;;;;;;;;;;22.18;57.43;95202.81;10360878;28;97075;-58
2022/09/14 17:16:33;;;;;;;;;;;;;;;22.17;57.27;95227.78;10347055;28;97251;-59
2022/09/14 17:21:37;;;;;;;;;;;;;;;22.11;57.47;95242.09;10373011;28;97244;-59
2022/09/14 17:26:42;;;;;;;;;;;;;;;22.07;57.02;95246.25;10372388;28;97012;-59
2022/09/14 17:31:45;;;;;;;;;;;;;;;22.04;57.11;95236.13;10387291;28;97087;-59
2022/09/14 17:36:47;;;;;;;;;;;;;;;22.00;56.98;95235.00;10377825;28;97574;-59
2022/09/14 17:41:51;;;;;;;;;;;;;;;21.93;56.90;95229.84;10378026;28;96710;-58
2022/09/14 17:46:54;;;;;;;;;;;;;;;21.90;57.28;95246.31;10377574;28;97028;-58
2022/09/14 17:51:56;;;;;;;;;;;;;;;21.83;57.28;95283.69;10407393;28;96820;-58
2022/09/14 17:57:00;;;;;;;;;;;;;;;21.77;57.50;95284.63;10377288;28;96706;-58
2022/09/14 18:02:03;;;;;;;;;;;;;;;21.73;57.56;95294.16;10377358;28;97184;-60
2022/09/14 18:07:06;;;;;;;;;;;;;;;21.16;58.44;95347.31;10374471;28;97026;-59
2022/09/14 18:12:10;;;;;;;;;;;;;;;16.03;85.87;95418.97;10379091;27;97288;-61
2022/09/14 18:17:12;;;;;;;;;;;;;;;15.43;91.85;95363.53;10373345;28;97430;-60
2022/09/14 18:22:15;;;;;;;;;;;;;;;15.39;93.20;95332.56;10370608;28;97255;-61
2022/09/14 18:27:19;;;;;;;;;;;;;;;14.86;94.66;95305.09;10334460;28;97098;-61
2022/09/14 18:32:22;;;;;;;;;;;;;;;14.91;96.54;95288.75;10383364;28;96705;-62
2022/09/14 18:37:24;;;;;;;;;;;;;;;15.28;96.68;95284.75;10371727;28;96830;-60
2022/09/14 18:42:28;;;;;;;;;;;;;;;15.28;96.65;95305.00;10375237;28;96683;-60
2022/09/14 18:47:31;;;;;;;;;;;;;;;15.40;97.54;95303.41;10389790;27;96702;-62
2022/09/14 18:52:33;;;;;;;;;;;;;;;15.44;97.90;95307.28;10399951;28;97919;-60
2022/09/14 18:57:38;;;;;;;;;;;;;;;15.39;98.20;95322.84;10375865;28;96869;-60
2022/09/14 19:02:41;;;;;;;;;;;;;;;15.50;99.03;95329.34;10385067;28;96853;-61
2022/09/14 19:07:43;;;;;;;;;;;;;;;15.53;99.75;95351.81;10391368;28;96787;-60
2022/09/14 19:12:47;;;;;;;;;;;;;;;15.63;99.99;95352.25;10373362;28;96846;-59
2022/09/14 19:17:50;;;;;;;;;;;;;;;15.67;100.00;95382.47;10377876;28;96764;-60
2022/09/14 19:22:55;;;;;;;;;;;;;;;15.62;100.00;95380.41;10374309;28;97474;-60
2022/09/14 19:27:58;;;;;;;;;;;;;;;15.46;100.00;95383.38;10410233;28;96927;-60
2022/09/14 19:33:01;;;;;;;;;;;;;;;15.41;100.00;95389.25;10415967;28;96746;-60
2022/09/14 19:38:04;;;;;;;;;;;;;;;15.43;100.00;95391.69;10354733;27;96967;-59
2022/09/14 19:43:08;;;;;;;;;;;;;;;15.44;100.00;95399.41;10332295;28;96791;-59
2022/09/14 19:48:11;;;;;;;;;;;;;;;15.66;100.00;95391.38;10333137;28;97926;-60
2022/09/14 19:53:13;;;;;;;;;;;;;;;15.84;100.00;95404.78;10350647;28;96873;-59
2022/09/14 19:58:17;;;;;;;;;;;;;;;15.69;100.00;95404.13;10389716;28;96909;-61
2022/09/14 20:03:20;;;;;;;;;;;;;;;15.77;100.00;95422.38;10397905;27;96780;-60
2022/09/14 20:08:22;;;;;;;;;;;;;;;15.61;100.00;95449.06;10394195;27;97029;-62
2022/09/14 20:13:26;;;;;;;;;;;;;;;15.50;100.00;95413.56;10380174;28;97432;-63
2022/09/14 20:18:30;;;;;;;;;;;;;;;15.58;100.00;95425.72;10392992;28;97785;-60
2022/09/14 20:23:33;;;;;;;;;;;;;;;15.71;100.00;95444.22;10345454;28;96817;-60
2022/09/14 20:28:37;;;;;;;;;;;;;;;15.78;100.00;95458.22;10371554;28;96854;-60
2022/09/14 20:33:40;;;;;;;;;;;;;;;15.76;100.00;95483.94;10383155;28;96782;-60
2022/09/14 20:38:43;;;;;;;;;;;;;;;15.72;100.00;95527.50;10400150;28;98141;-60
2022/09/14 20:43:53;;;;;;;;;;;;;;;15.57;100.00;95547.84;10398503;27;96709;-61
2022/09/14 20:48:56;;;;;;;;;;;;;;;15.48;100.00;95576.97;10395505;28;96967;-60
2022/09/14 20:53:59;;;;;;;;;;;;;;;15.40;100.00;95582.38;10391493;28;97327;-60
2022/09/14 20:59:06;;;;;;;;;;;;;;;15.34;100.00;95567.38;10394104;28;97045;-59
2022/09/14 21:04:09;;;;;;;;;;;;;;;15.39;100.00;95570.25;10380869;28;97149;-58
2022/09/14 21:09:12;;;;;;;;;;;;;;;15.44;100.00;95533.63;10378299;28;96699;-59
2022/09/14 21:14:17;;;;;;;;;;;;;;;15.39;100.00;95538.66;10376678;28;96880;-58
2022/09/14 21:19:21;;;;;;;;;;;;;;;15.30;100.00;95534.53;10393334;28;96801;-59
2022/09/14 21:24:23;;;;;;;;;;;;;;;15.27;100.00;95558.63;10364768;28;97530;-58
2022/09/14 21:29:27;;;;;;;;;;;;;;;15.27;100.00;95575.22;10412627;28;97059;-59
2022/09/14 21:34:30;;;;;;;;;;;;;;;15.32;100.00;95595.69;10378048;28;96968;-59
2022/09/14 21:39:32;;;;;;;;;;;;;;;15.38;100.00;95625.69;10379637;27;96739;-59
2022/09/14 21:44:37;;;;;;;;;;;;;;;15.39;100.00;95630.78;10405560;28;96803;-59
2022/09/14 21:49:40;;;;;;;;;;;;;;;15.40;100.00;95636.84;10392341;28;96681;-59
2022/09/14 21:54:42;;;;;;;;;;;;;;;15.40;100.00;95650.81;10377171;28;96973;-59
2022/09/14 21:59:46;;;;;;;;;;;;;;;15.37;100.00;95659.09;10377478;28;96923;-58
2022/09/14 22:04:49;;;;;;;;;;;;;;;15.36;100.00;95644.31;10376791;28;97669;-58
2022/09/14 22:09:52;;;;;;;;;;;;;;;15.39;100.00;95654.47;10376827;28;97022;-59
2022/09/14 22:14:56;;;;;;;;;;;;;;;15.33;100.00;95649.97;10409850;28;96835;-58
2022/09/14 22:19:59;;;;;;;;;;;;;;;15.25;100.00;95658.81;10399606;28;97345;-59
2022/09/14 22:25:02;;;;;;;;;;;;;;;15.16;100.00;95667.84;10395222;28;98061;-58
2022/09/14 22:30:06;;;;;;;;;;;;;;;15.15;100.00;95673.28;10391016;28;97075;-59
2022/09/14 22:35:09;;;;;;;;;;;;;;;15.19;100.00;95685.06;10395627;28;96788;-59
2022/09/14 22:40:11;;;;;;;;;;;;;;;15.26;100.00;95685.94;10391702;28;97104;-59
2022/09/14 22:45:17;;;;;;;;;;;;;;;15.26;100.00;95692.00;10399963;28;96914;-59
2022/09/14 22:50:19;;;;;;;;;;;;;;;15.28;100.00;95689.19;10373731;28;97856;-59
2022/09/14 22:55:22;;;;;;;;;;;;;;;15.22;100.00;95689.97;10376026;28;96678;-58
2022/09/14 23:00:26;;;;;;;;;;;;;;;15.17;100.00;95677.38;10384499;28;96770;-59
2022/09/14 23:05:28;;;;;;;;;;;;;;;15.16;100.00;95674.91;10375271;28;97524;-58
2022/09/14 23:10:31;;;;;;;;;;;;;;;15.06;100.00;95675.25;10373621;28;96751;-59
2022/09/14 23:15:38;;;;;;;;;;;;;;;14.99;100.00;95672.56;10413007;28;96851;-59
2022/09/14 23:20:42;;;;;;;;;;;;;;;14.94;100.00;95665.25;10389496;28;96997;-58
2022/09/14 23:25:44;;;;;;;;;;;;;;;14.88;100.00;95647.56;10379644;28;97157;-59
2022/09/14 23:30:53;;;;;;;;;;;;;;;14.85;100.00;95637.47;10416323;28;96760;-58
2022/09/14 23:35:55;;;;;;;;;;;;;;;14.88;100.00;95637.06;10414816;28;96828;-59
2022/09/14 23:40:58;;;;;;;;;;;;;;;14.87;100.00;95624.09;10415952;27;96856;-59
2022/09/14 23:46:02;;;;;;;;;;;;;;;14.79;100.00;95632.13;10415683;28;96833;-58
2022/09/14 23:51:06;;;;;;;;;;;;;;;14.65;100.00;95615.44;10385919;28;96753;-58
2022/09/14 23:56:08;;;;;;;;;;;;;;;14.61;100.00;95612.38;10374239;28;96854;-59
